createdAt,value
2023-03-12T00:02:18.357Z,3.17
2023-03-12T00:04:44.970Z,3.85
2023-03-12T00:07:11.670Z,2.90
2023-03-12T00:09:39.241Z,2.70
2023-03-12T00:12:06.611Z,3.50
2023-03-12T00:14:33.658Z,3.47
2023-03-12T00:17:00.353Z,3.25
2023-03-12T00:19:27.328Z,2.38
2023-03-12T00:21:53.921Z,3.75
2023-03-12T00:24:20.543Z,3.83
2023-03-12T00:26:47.910Z,3.67
2023-03-12T00:29:14.557Z,3.97
2023-03-12T00:31:41.375Z,4.32
2023-03-12T00:34:08.027Z,3.47
2023-03-12T00:36:34.679Z,4.65
2023-03-12T00:39:01.959Z,3.13
2023-03-12T00:41:30.488Z,3.45
2023-03-12T00:43:57.439Z,4.60
2023-03-12T00:46:24.613Z,2.28
2023-03-12T00:48:51.775Z,2.92
2023-03-12T00:51:18.810Z,2.58
2023-03-12T00:53:45.573Z,3.22
2023-03-12T00:56:12.398Z,2.75
2023-03-12T00:58:39.108Z,3.08
2023-03-12T01:01:06.049Z,3.28
2023-03-12T01:03:32.935Z,3.38
2023-03-12T01:05:59.565Z,2.63
2023-03-12T01:08:26.473Z,2.63
2023-03-12T01:10:53.326Z,2.97
2023-03-12T01:13:20.607Z,2.35
2023-03-12T01:15:47.363Z,2.45
2023-03-12T01:18:14.012Z,6.88
2023-03-12T01:20:41.076Z,3.25
2023-03-12T01:23:08.255Z,3.65
2023-03-12T01:25:36.119Z,5.97
2023-03-12T01:28:04.276Z,7.18
2023-03-12T01:30:31.290Z,9.95
2023-03-12T01:32:58.200Z,6.93
2023-03-12T01:35:25.299Z,6.55
2023-03-12T01:37:53.048Z,5.40
2023-03-12T01:40:25.406Z,6.70
2023-03-12T01:42:56.035Z,5.00
2023-03-12T01:46:10.529Z,3.50
2023-03-12T01:48:41.786Z,3.97
2023-03-12T01:51:12.346Z,5.72
2023-03-12T01:53:41.538Z,4.22
2023-03-12T01:56:09.059Z,4.78
2023-03-12T01:58:40.355Z,5.28
2023-03-12T02:01:07.527Z,3.67
2023-03-12T02:03:35.894Z,3.80
2023-03-12T02:06:06.825Z,5.13
2023-03-12T02:08:38.504Z,4.60
2023-03-12T02:11:05.108Z,10.73
2023-03-12T02:13:31.929Z,8.15
2023-03-12T02:15:58.774Z,6.25
2023-03-12T02:18:25.599Z,9.23
2023-03-12T02:21:16.968Z,7.45
2023-03-12T02:24:11.038Z,3.90
2023-03-12T02:26:39.117Z,7.70
2023-03-12T02:29:07.083Z,6.32
2023-03-12T02:31:40.852Z,5.45
2023-03-12T02:34:08.582Z,5.40
2023-03-12T02:36:36.370Z,3.20
2023-03-12T02:39:03.381Z,6.63
2023-03-12T02:41:34.242Z,4.97
2023-03-12T02:44:11.399Z,4.35
2023-03-12T02:46:42.353Z,4.32
2023-03-12T02:49:11.894Z,6.18
2023-03-12T02:51:39.580Z,6.75
2023-03-12T02:54:06.568Z,4.57
2023-03-12T02:56:33.930Z,4.70
2023-03-12T02:59:03.260Z,4.88
2023-03-12T03:01:34.933Z,8.02
2023-03-12T03:04:03.002Z,4.20
2023-03-12T03:06:29.962Z,3.45
2023-03-12T03:08:56.868Z,5.20
2023-03-12T03:11:24.705Z,5.68
2023-03-12T03:13:55.434Z,6.30
2023-03-12T03:16:23.417Z,4.22
2023-03-12T03:18:50.232Z,8.07
2023-03-12T03:21:17.128Z,6.43
2023-03-12T03:23:47.107Z,4.45
2023-03-12T03:26:15.178Z,5.72
2023-03-12T03:31:08.173Z,3.85
2023-03-12T03:33:39.631Z,5.00
2023-03-12T03:36:08.951Z,4.40
2023-03-12T03:38:40.541Z,6.95
2023-03-12T03:41:08.221Z,7.15
2023-03-12T03:43:40.253Z,5.93
2023-03-12T03:46:07.133Z,5.35
2023-03-12T03:48:38.045Z,3.08
2023-03-12T03:51:09.220Z,4.82
2023-03-12T03:53:39.123Z,7.03
2023-03-12T03:56:08.306Z,5.80
2023-03-12T03:58:37.906Z,7.07
2023-03-12T04:01:06.221Z,6.30
2023-03-12T04:03:33.439Z,4.55
2023-03-12T04:06:02.358Z,5.85
2023-03-12T04:08:29.972Z,5.88
2023-03-12T04:10:56.678Z,9.68
2023-03-12T04:13:23.436Z,4.53
2023-03-12T04:15:53.519Z,5.97
2023-03-12T04:18:20.990Z,8.05
2023-03-12T04:20:47.879Z,9.10
2023-03-12T04:23:14.999Z,6.75
2023-03-12T04:25:41.815Z,3.70
2023-03-12T04:28:08.917Z,6.85
2023-03-12T04:30:38.324Z,3.97
2023-03-12T04:33:06.582Z,6.07
2023-03-12T04:35:33.970Z,4.90
2023-03-12T04:38:02.249Z,4.78
2023-03-12T04:40:29.993Z,5.35
2023-03-12T04:42:56.857Z,4.07
2023-03-12T04:45:23.970Z,5.40
2023-03-12T04:47:50.706Z,4.85
2023-03-12T04:50:17.863Z,5.32
2023-03-12T04:52:44.756Z,3.67
2023-03-12T04:55:11.808Z,4.95
2023-03-12T04:57:38.493Z,4.72
2023-03-12T05:00:11.042Z,6.20
2023-03-12T05:02:38.144Z,5.60
2023-03-12T05:05:05.565Z,5.65
2023-03-12T05:07:32.267Z,5.10
2023-03-12T05:09:59.386Z,4.90
2023-03-12T05:12:26.135Z,3.85
2023-03-12T05:14:52.837Z,3.60
2023-03-12T05:17:19.587Z,5.43
2023-03-12T05:19:46.722Z,5.90
2023-03-12T05:22:13.450Z,4.13
2023-03-12T05:24:40.135Z,4.13
2023-03-12T05:27:08.575Z,4.22
2023-03-12T05:29:35.797Z,3.90
2023-03-12T05:32:04.358Z,5.53
2023-03-12T05:34:34.200Z,4.18
2023-03-12T05:37:02.251Z,3.50
2023-03-12T05:39:30.148Z,3.17
2023-03-12T05:42:01.947Z,3.87
2023-03-12T05:44:29.181Z,5.70
2023-03-12T05:46:58.746Z,6.70
2023-03-12T05:49:26.454Z,5.75
2023-03-12T05:51:54.725Z,4.80
2023-03-12T05:54:23.073Z,9.13
2023-03-12T05:56:52.124Z,4.20
2023-03-12T05:59:20.714Z,4.32
2023-03-12T06:01:48.329Z,3.50
2023-03-12T06:04:15.812Z,4.22
2023-03-12T06:06:42.530Z,5.72
2023-03-12T06:09:09.882Z,4.03
2023-03-12T06:11:36.580Z,4.20
2023-03-12T06:14:03.850Z,4.63
2023-03-12T06:16:31.191Z,3.15
2023-03-12T06:19:01.943Z,4.57
2023-03-12T06:21:34.825Z,3.63
2023-03-12T06:24:02.366Z,4.30
2023-03-12T06:26:35.834Z,3.67
2023-03-12T06:29:02.537Z,4.63
2023-03-12T06:31:29.332Z,3.72
2023-03-12T06:33:55.970Z,3.47
2023-03-12T06:36:23.996Z,4.72
2023-03-12T06:38:50.683Z,2.67
2023-03-12T06:41:19.234Z,4.10
2023-03-12T06:43:46.875Z,4.30
2023-03-12T06:46:17.952Z,4.13
2023-03-12T06:48:46.216Z,3.53
2023-03-12T06:51:14.674Z,5.55
2023-03-12T06:53:42.581Z,4.60
2023-03-12T06:56:09.967Z,5.15
2023-03-12T06:58:36.665Z,4.65
2023-03-12T07:01:04.026Z,2.72
2023-03-12T07:03:30.776Z,3.20
2023-03-12T07:05:58.486Z,2.03
2023-03-12T07:08:26.021Z,4.53
2023-03-12T07:10:52.668Z,4.05
2023-03-12T07:13:19.249Z,2.85
2023-03-12T07:15:46.589Z,2.35
2023-03-12T07:18:13.421Z,3.03
2023-03-12T07:20:42.339Z,3.25
2023-03-12T07:23:09.973Z,2.90
2023-03-12T07:25:38.282Z,2.60
2023-03-12T07:28:05.904Z,2.45
2023-03-12T07:30:33.672Z,2.75
2023-03-12T07:33:12.255Z,3.13
2023-03-12T07:35:39.548Z,2.45
2023-03-12T07:38:07.415Z,2.95
2023-03-12T07:40:35.130Z,2.08
2023-03-12T07:43:02.129Z,2.70
2023-03-12T07:45:32.436Z,2.38
2023-03-12T07:47:59.228Z,2.40
2023-03-12T07:50:25.931Z,2.38
2023-03-12T07:52:52.549Z,2.17
2023-03-12T07:55:19.272Z,2.83
2023-03-12T07:57:45.958Z,2.65
2023-03-12T08:00:13.508Z,2.95
2023-03-12T08:02:40.285Z,2.78
2023-03-12T08:05:07.721Z,3.85
2023-03-12T08:07:35.313Z,2.75
2023-03-12T08:10:05.110Z,2.72
2023-03-12T08:12:32.329Z,2.83
2023-03-12T08:14:59.173Z,2.58
2023-03-12T08:17:26.386Z,2.47
2023-03-12T08:19:53.016Z,2.60
2023-03-12T08:22:19.812Z,3.88
2023-03-12T08:24:46.503Z,2.53
2023-03-12T08:27:14.222Z,2.55
2023-03-12T08:29:41.408Z,3.03
2023-03-12T08:32:10.716Z,3.05
2023-03-12T08:34:37.575Z,2.63
2023-03-12T08:37:04.779Z,3.80
2023-03-12T08:39:32.041Z,3.60
2023-03-12T08:41:59.177Z,2.67
2023-03-12T08:44:26.588Z,1.77
2023-03-12T08:46:53.698Z,3.25
2023-03-12T08:49:21.429Z,4.63
2023-03-12T08:51:48.362Z,3.85
2023-03-12T08:54:15.273Z,3.55
2023-03-12T08:56:43.533Z,2.47
2023-03-12T08:59:13.849Z,2.80
2023-03-12T09:01:43.559Z,3.35
2023-03-12T09:04:10.653Z,3.28
2023-03-12T09:06:38.483Z,3.88
2023-03-12T09:09:05.835Z,2.70
2023-03-12T09:11:34.302Z,2.72
2023-03-12T09:14:33.786Z,3.00
2023-03-12T09:16:49.073Z,3.33
2023-03-12T09:19:15.909Z,4.20
2023-03-12T09:21:42.803Z,3.15
2023-03-12T09:24:10.361Z,3.88
2023-03-12T09:26:36.945Z,2.67
2023-03-12T09:29:03.538Z,2.63
2023-03-12T09:31:30.188Z,3.92
2023-03-12T09:33:56.990Z,3.28
2023-03-12T09:36:23.617Z,1.90
2023-03-12T09:38:50.246Z,3.33
2023-03-12T09:41:29.266Z,3.28
2023-03-12T09:44:10.920Z,3.17
2023-03-12T09:46:46.996Z,4.80
2023-03-12T09:49:30.306Z,3.47
2023-03-12T09:51:59.099Z,2.95
2023-03-12T09:54:45.813Z,2.78
2023-03-12T09:57:19.752Z,2.22
2023-03-12T09:59:46.344Z,3.92
2023-03-12T10:02:33.797Z,2.47
2023-03-12T10:05:18.764Z,2.25
2023-03-12T10:08:37.749Z,4.68
2023-03-12T10:11:36.648Z,2.13
2023-03-12T10:14:27.924Z,2.55
2023-03-12T10:17:31.885Z,3.45
2023-03-12T10:20:23.285Z,3.63
2023-03-12T10:22:55.119Z,4.65
2023-03-12T10:25:44.286Z,2.33
2023-03-12T10:28:20.016Z,3.72
2023-03-12T10:30:53.644Z,4.47
2023-03-12T10:33:21.881Z,2.78
2023-03-12T10:35:50.093Z,3.75
2023-03-12T10:38:30.184Z,3.33
2023-03-12T10:40:56.760Z,2.53
2023-03-12T10:43:24.026Z,2.75
2023-03-12T10:46:44.921Z,3.10
2023-03-12T10:49:23.572Z,3.10
2023-03-12T10:52:17.879Z,4.90
2023-03-12T10:54:47.418Z,3.50
2023-03-12T10:57:15.532Z,4.32
2023-03-12T10:59:45.469Z,5.15
2023-03-12T11:02:27.016Z,2.08
2023-03-12T11:04:54.170Z,2.55
2023-03-12T11:07:23.363Z,1.95
2023-03-12T11:10:07.275Z,2.60
2023-03-12T11:12:37.109Z,2.20
2023-03-12T11:15:20.998Z,2.53
2023-03-12T11:17:48.071Z,3.40
2023-03-12T11:20:20.889Z,5.57
2023-03-12T11:22:49.502Z,2.85
2023-03-12T11:25:35.009Z,2.13
2023-03-12T11:28:03.495Z,2.35
2023-03-12T11:30:38.458Z,3.95
2023-03-12T11:33:05.424Z,3.50
2023-03-12T11:36:03.901Z,3.67
2023-03-12T11:39:11.048Z,3.42
2023-03-12T11:42:08.163Z,2.85
2023-03-12T11:44:49.920Z,2.15
2023-03-12T11:47:37.001Z,2.97
2023-03-12T11:50:13.699Z,4.50
2023-03-12T11:53:18.242Z,4.25
2023-03-12T11:55:49.649Z,2.83
2023-03-12T11:58:35.045Z,3.05
2023-03-12T12:01:26.057Z,2.42
2023-03-12T12:04:20.311Z,3.42
2023-03-12T12:07:03.831Z,2.75
2023-03-12T12:09:33.908Z,1.95
2023-03-12T12:12:14.958Z,3.03
2023-03-12T12:14:53.452Z,3.03
2023-03-12T12:17:30.783Z,2.53
2023-03-12T12:20:12.097Z,2.15
2023-03-12T12:23:06.684Z,2.25
2023-03-12T12:25:39.791Z,4.50
2023-03-12T12:28:25.403Z,1.85
2023-03-12T12:31:29.904Z,2.47
2023-03-12T12:34:01.161Z,2.13
2023-03-12T12:36:32.010Z,2.58
2023-03-12T12:39:06.078Z,2.67
2023-03-12T12:41:37.908Z,2.25
2023-03-12T12:44:33.227Z,3.50
2023-03-12T12:47:05.499Z,2.88
2023-03-12T12:49:48.778Z,2.88
2023-03-12T12:52:20.137Z,2.55
2023-03-12T12:55:10.551Z,2.15
2023-03-12T12:57:54.541Z,2.25
2023-03-12T13:00:40.401Z,1.90
2023-03-12T13:03:11.946Z,1.98
2023-03-12T13:05:58.641Z,2.45
2023-03-12T13:08:55.345Z,2.72
2023-03-12T13:11:43.000Z,2.17
2023-03-12T13:14:09.540Z,3.30
2023-03-12T13:16:43.110Z,2.42
2023-03-12T13:19:18.965Z,2.63
2023-03-12T13:22:10.202Z,2.72
2023-03-12T13:24:39.778Z,2.85
2023-03-12T13:27:30.832Z,4.07
2023-03-12T13:29:57.989Z,2.67
2023-03-12T13:32:38.005Z,2.58
2023-03-12T13:35:27.506Z,2.45
2023-03-12T13:37:54.084Z,3.30
2023-03-12T13:40:29.753Z,2.53
2023-03-12T13:43:15.444Z,3.00
2023-03-12T13:45:48.121Z,3.10
2023-03-12T13:50:52.068Z,2.70
2023-03-12T13:53:27.559Z,3.05
2023-03-12T13:56:08.516Z,2.00
2023-03-12T13:59:14.068Z,5.22
2023-03-12T14:01:43.685Z,2.15
2023-03-12T14:04:24.722Z,1.90
2023-03-12T14:06:59.781Z,2.72
2023-03-12T14:09:50.559Z,2.10
2023-03-12T14:12:28.612Z,2.65
2023-03-12T14:14:58.292Z,1.98
2023-03-12T14:17:28.104Z,3.33
2023-03-12T14:20:02.652Z,3.60
2023-03-12T14:22:32.979Z,2.00
2023-03-12T14:25:21.930Z,3.72
2023-03-12T14:27:49.002Z,2.13
2023-03-12T14:30:15.541Z,1.80
2023-03-12T14:32:43.633Z,3.17
2023-03-12T14:35:28.257Z,2.03
2023-03-12T14:38:00.356Z,2.40
2023-03-12T14:40:50.844Z,2.17
2023-03-12T14:43:29.606Z,2.58
2023-03-12T14:46:02.726Z,2.78
2023-03-12T14:48:35.044Z,2.03
2023-03-12T14:51:04.071Z,2.30
2023-03-12T14:53:33.594Z,2.38
2023-03-12T14:56:13.603Z,2.30
2023-03-12T14:58:50.188Z,2.05
2023-03-12T15:01:39.510Z,2.67
2023-03-12T15:04:15.261Z,4.20
2023-03-12T15:06:49.087Z,3.22
2023-03-12T15:09:22.126Z,3.08
2023-03-12T15:11:59.248Z,2.75
2023-03-12T15:14:29.332Z,1.92
2023-03-12T15:16:58.872Z,2.28
2023-03-12T15:19:33.259Z,2.40
2023-03-12T15:22:00.631Z,3.25
2023-03-12T15:24:30.433Z,2.80
2023-03-12T15:26:57.204Z,2.22
2023-03-12T15:29:30.434Z,2.83
2023-03-12T15:31:59.604Z,2.67
2023-03-12T15:34:32.984Z,3.05
2023-03-12T15:37:02.108Z,3.55
2023-03-12T15:39:34.674Z,2.33
2023-03-12T15:42:16.205Z,4.35
2023-03-12T15:44:47.065Z,3.10
2023-03-12T15:47:17.670Z,2.95
2023-03-12T15:49:50.827Z,4.03
2023-03-12T15:52:22.137Z,2.65
2023-03-12T15:55:24.979Z,2.92
2023-03-12T15:57:55.047Z,5.10
2023-03-12T16:00:25.358Z,2.85
2023-03-12T16:02:56.265Z,2.28
2023-03-12T16:05:41.201Z,2.85
2023-03-12T16:08:26.619Z,2.85
2023-03-12T16:10:54.041Z,4.15
2023-03-12T16:13:23.460Z,3.65
2023-03-12T16:15:51.000Z,2.22
2023-03-12T16:18:22.501Z,3.47
2023-03-12T16:20:51.026Z,2.58
2023-03-12T16:23:19.052Z,3.20
2023-03-12T16:26:05.397Z,3.83
2023-03-12T16:28:35.065Z,4.22
2023-03-12T16:31:02.364Z,3.03
2023-03-12T16:33:29.019Z,3.25
2023-03-12T16:35:56.024Z,5.20
2023-03-12T16:38:22.723Z,3.35
2023-03-12T16:40:51.853Z,4.40
2023-03-12T16:43:24.426Z,3.85
2023-03-12T16:45:52.735Z,5.90
2023-03-12T16:48:23.065Z,3.17
2023-03-12T16:50:57.798Z,5.38
2023-03-12T16:53:25.528Z,3.22
2023-03-12T16:55:55.526Z,5.78
2023-03-12T16:58:24.013Z,5.75
2023-03-12T17:00:51.819Z,7.82
2023-03-12T17:03:25.735Z,5.82
2023-03-12T17:05:53.567Z,6.63
2023-03-12T17:08:20.210Z,7.45
2023-03-12T17:10:46.819Z,7.35
2023-03-12T17:13:19.978Z,4.88
2023-03-12T17:15:47.258Z,5.43
2023-03-12T17:18:13.985Z,4.63
2023-03-12T17:20:42.192Z,6.60
2023-03-12T17:23:09.438Z,5.95
2023-03-12T17:25:38.972Z,4.82
2023-03-12T17:28:06.164Z,4.78
2023-03-12T17:30:34.394Z,4.70
2023-03-12T17:33:07.382Z,7.63
2023-03-12T17:35:35.028Z,3.85
2023-03-12T17:38:01.935Z,6.43
2023-03-12T17:40:28.886Z,5.80
2023-03-12T17:42:55.576Z,8.57
2023-03-12T17:45:22.713Z,8.52
2023-03-12T17:47:49.444Z,6.43
2023-03-12T17:50:17.232Z,6.88
2023-03-12T17:52:44.321Z,8.48
2023-03-12T17:55:11.947Z,8.00
2023-03-12T17:57:39.104Z,8.80
2023-03-12T18:00:12.685Z,17.02
2023-03-12T18:02:40.954Z,15.32
2023-03-12T18:05:09.828Z,22.20
2023-03-12T18:07:37.203Z,18.50
2023-03-12T18:10:06.488Z,18.80
2023-03-12T18:12:34.417Z,13.23
2023-03-12T18:15:02.022Z,11.93
2023-03-12T18:17:28.647Z,7.93
2023-03-12T18:19:55.295Z,8.52
2023-03-12T18:22:21.889Z,10.38
2023-03-12T18:24:48.618Z,7.00
2023-03-12T18:27:15.200Z,11.05
2023-03-12T18:29:42.386Z,6.80
2023-03-12T18:32:09.386Z,7.25
2023-03-12T18:34:36.139Z,7.85
2023-03-12T18:37:02.751Z,7.07
2023-03-12T18:39:29.375Z,8.63
2023-03-12T18:41:56.283Z,9.63
2023-03-12T18:44:23.018Z,9.20
2023-03-12T18:46:51.876Z,8.07
2023-03-12T18:49:18.704Z,8.48
2023-03-12T18:51:45.630Z,9.95
2023-03-12T18:54:12.808Z,7.72
2023-03-12T18:56:41.133Z,10.68
2023-03-12T18:59:09.975Z,11.93
2023-03-12T19:01:37.164Z,8.52
2023-03-12T19:04:04.499Z,9.25
2023-03-12T19:06:44.317Z,8.93
2023-03-12T19:09:16.702Z,8.05
2023-03-12T19:11:43.368Z,10.93
2023-03-12T19:14:10.480Z,9.38
2023-03-12T19:16:37.406Z,11.32
2023-03-12T19:19:04.111Z,10.68
2023-03-12T19:21:30.992Z,13.18
2023-03-12T19:23:58.075Z,14.05
2023-03-12T19:26:26.125Z,11.32
2023-03-12T19:28:52.968Z,12.35
2023-03-12T19:31:19.618Z,13.55
2023-03-12T19:33:46.479Z,14.57
2023-03-12T19:36:13.408Z,11.55
2023-03-12T19:38:40.345Z,10.57
2023-03-12T19:41:09.061Z,10.45
2023-03-12T19:43:37.000Z,10.75
2023-03-12T19:46:04.346Z,11.10
2023-03-12T19:48:31.381Z,11.88
2023-03-12T19:50:58.086Z,9.23
2023-03-12T19:53:25.017Z,13.02
2023-03-12T19:55:51.970Z,12.15
2023-03-12T19:58:18.985Z,15.10
2023-03-12T20:00:45.877Z,10.10
2023-03-12T20:03:12.537Z,12.18
2023-03-12T20:05:43.041Z,12.73
2023-03-12T20:08:11.162Z,10.73
2023-03-12T20:10:38.887Z,11.32
2023-03-12T20:13:05.682Z,16.15
2023-03-12T20:15:32.273Z,12.13
2023-03-12T20:17:58.924Z,11.25
2023-03-12T20:20:25.851Z,8.20
2023-03-12T20:22:52.540Z,9.20
2023-03-12T20:25:19.478Z,6.05
2023-03-12T20:27:47.472Z,9.60
2023-03-12T20:30:14.645Z,7.43
2023-03-12T20:32:42.766Z,11.25
2023-03-12T20:35:10.864Z,8.57
2023-03-12T20:37:37.535Z,8.27
2023-03-12T20:40:05.291Z,7.35
2023-03-12T20:42:31.971Z,7.70
2023-03-12T20:44:59.015Z,7.80
2023-03-12T20:47:26.727Z,7.93
2023-03-12T20:49:53.428Z,8.40
2023-03-12T20:52:20.446Z,7.25
2023-03-12T20:54:47.323Z,6.22
2023-03-12T20:57:14.320Z,7.55
2023-03-12T20:59:41.245Z,9.32
2023-03-12T21:02:08.253Z,7.68
2023-03-12T21:04:35.129Z,8.10
2023-03-12T21:07:02.092Z,7.65
2023-03-12T21:09:29.022Z,8.32
2023-03-12T21:11:56.602Z,10.82
2023-03-12T21:14:23.496Z,12.80
2023-03-12T21:16:51.001Z,9.48
2023-03-12T21:19:18.820Z,8.35
2023-03-12T21:21:45.417Z,14.93
2023-03-12T21:24:12.206Z,15.77
2023-03-12T21:26:39.272Z,15.57
2023-03-12T21:29:06.622Z,14.25
2023-03-12T21:31:33.264Z,18.10
2023-03-12T21:33:59.982Z,15.75
2023-03-12T21:36:27.099Z,18.08
2023-03-12T21:38:53.913Z,17.00
2023-03-12T21:41:21.812Z,12.70
2023-03-12T21:43:49.240Z,14.02
2023-03-12T21:46:19.318Z,11.98
2023-03-12T21:48:48.584Z,11.95
2023-03-12T21:51:17.842Z,10.93
2023-03-12T21:53:44.783Z,9.75
2023-03-12T21:56:12.133Z,9.98
2023-03-12T21:58:38.913Z,11.10
2023-03-12T22:01:14.465Z,9.73
2023-03-12T22:03:43.497Z,9.35
2023-03-12T22:06:11.765Z,11.25
2023-03-12T22:08:40.043Z,12.05
2023-03-12T22:11:08.292Z,11.00
2023-03-12T22:13:35.558Z,10.57
2023-03-12T22:16:06.711Z,9.38
2023-03-12T22:18:37.371Z,8.43
2023-03-12T22:21:07.759Z,10.50
2023-03-12T22:23:36.253Z,9.73
2023-03-12T22:26:04.927Z,10.07
2023-03-12T22:28:33.045Z,8.85
2023-03-12T22:31:05.411Z,8.10
2023-03-12T22:33:32.402Z,7.72
2023-03-12T22:35:59.213Z,8.88
2023-03-12T22:38:25.900Z,10.55
2023-03-12T22:40:55.383Z,8.73
2023-03-12T22:43:22.431Z,10.02
2023-03-12T22:45:53.757Z,9.60
2023-03-12T22:48:20.516Z,9.70
2023-03-12T22:50:56.179Z,10.38
2023-03-12T22:53:23.309Z,8.88
2023-03-12T22:55:58.115Z,9.65
2023-03-12T22:58:24.743Z,9.63
2023-03-12T23:00:59.348Z,8.18
2023-03-12T23:03:26.445Z,8.55
2023-03-12T23:05:53.128Z,15.38
2023-03-12T23:08:19.786Z,12.00
2023-03-12T23:10:58.047Z,10.93
2023-03-12T23:13:25.910Z,12.60
2023-03-12T23:15:52.814Z,9.45
2023-03-12T23:18:20.148Z,10.48
2023-03-12T23:20:47.346Z,9.25
2023-03-12T23:23:16.720Z,9.68
2023-03-12T23:25:51.553Z,9.80
2023-03-12T23:28:18.161Z,9.48
2023-03-12T23:30:53.426Z,11.13
2023-03-12T23:33:20.055Z,8.43
2023-03-12T23:35:58.027Z,8.00
2023-03-12T23:38:25.110Z,8.80
2023-03-12T23:40:52.139Z,8.15
2023-03-12T23:43:18.842Z,8.75
2023-03-12T23:45:45.491Z,9.27
2023-03-12T23:48:12.171Z,9.88
2023-03-12T23:50:38.855Z,8.90
2023-03-12T23:53:05.443Z,11.25
2023-03-12T23:55:32.014Z,8.90
2023-03-12T23:57:58.637Z,8.65
